createdAt,value
2023-01-23T00:04:49.721Z,32.20
2023-01-23T00:09:55.236Z,43.43
2023-01-23T00:15:00.369Z,36.23
2023-01-23T00:20:11.137Z,32.23
2023-01-23T00:25:17.434Z,36.17
2023-01-23T00:30:22.616Z,31.57
2023-01-23T00:35:39.372Z,31.77
2023-01-23T00:40:44.701Z,36.40
2023-01-23T00:45:51.034Z,38.87
2023-01-23T00:51:04.992Z,39.20
2023-01-23T00:56:11.390Z,36.50
2023-01-23T01:01:22.980Z,36.80
2023-01-23T01:06:32.113Z,30.80
2023-01-23T01:11:41.585Z,39.80
2023-01-23T01:16:46.832Z,36.23
2023-01-23T01:21:54.350Z,32.17
2023-01-23T01:27:02.578Z,31.30
2023-01-23T01:32:08.222Z,32.70
2023-01-23T01:37:16.035Z,30.80
2023-01-23T01:42:21.096Z,26.87
2023-01-23T01:47:27.174Z,31.17
2023-01-23T01:52:34.968Z,28.73
2023-01-23T01:57:43.867Z,31.43
2023-01-23T02:02:54.985Z,27.03
2023-01-23T02:08:11.156Z,32.30
2023-01-23T02:13:33.969Z,30.17
2023-01-23T02:18:44.012Z,31.87
2023-01-23T02:24:09.034Z,29.33
2023-01-23T02:29:22.263Z,28.13
2023-01-23T02:34:35.031Z,27.93
2023-01-23T02:39:40.369Z,23.93
2023-01-23T02:44:54.226Z,25.40
2023-01-23T02:50:00.568Z,30.07
2023-01-23T02:55:06.655Z,29.83
2023-01-23T03:00:23.062Z,28.50
2023-01-23T03:05:28.728Z,35.77
2023-01-23T03:10:34.370Z,30.87
2023-01-23T03:15:42.543Z,32.27
2023-01-23T03:20:50.806Z,32.27
2023-01-23T03:25:58.682Z,31.60
2023-01-23T03:31:17.793Z,33.30
2023-01-23T03:36:23.433Z,32.83
2023-01-23T03:41:28.692Z,33.43
2023-01-23T03:46:44.086Z,35.40
2023-01-23T03:51:51.702Z,33.53
2023-01-23T03:56:57.312Z,33.50
2023-01-23T04:02:24.805Z,31.47
2023-01-23T04:07:30.608Z,32.23
2023-01-23T04:12:35.659Z,36.20
2023-01-23T04:17:43.586Z,39.27
2023-01-23T04:22:48.605Z,36.63
2023-01-23T04:27:53.653Z,41.13
2023-01-23T04:33:01.163Z,37.93
2023-01-23T04:38:06.744Z,40.83
2023-01-23T04:43:14.074Z,32.17
2023-01-23T04:48:26.928Z,37.23
2023-01-23T04:53:32.302Z,36.93
2023-01-23T04:58:39.874Z,36.20
2023-01-23T05:03:49.546Z,38.27
2023-01-23T05:08:57.166Z,30.80
2023-01-23T05:14:12.813Z,38.30
2023-01-23T05:19:23.440Z,31.23
2023-01-23T05:24:28.658Z,36.17
2023-01-23T05:29:36.954Z,27.53
2023-01-23T05:34:52.702Z,29.27
2023-01-23T05:40:04.738Z,40.20
2023-01-23T05:45:29.689Z,32.47
2023-01-23T05:50:38.370Z,36.20
2023-01-23T05:55:43.760Z,32.87
2023-01-23T06:00:51.304Z,32.07
2023-01-23T06:06:25.410Z,30.43
2023-01-23T06:11:35.726Z,33.97
2023-01-23T06:16:43.636Z,36.17
2023-01-23T06:21:51.208Z,35.17
2023-01-23T06:26:56.975Z,33.20
2023-01-23T06:32:02.349Z,34.10
2023-01-23T06:37:18.207Z,31.67
2023-01-23T06:42:26.843Z,36.30
2023-01-23T06:47:36.441Z,33.77
2023-01-23T06:52:47.382Z,36.00
2023-01-23T06:57:52.460Z,32.93
2023-01-23T07:03:02.038Z,35.33
2023-01-23T07:08:13.698Z,32.10
2023-01-23T07:13:24.591Z,37.63
2023-01-23T07:18:32.802Z,35.80
2023-01-23T07:23:44.175Z,55.37
2023-01-23T07:28:49.152Z,42.03
2023-01-23T07:33:54.375Z,40.73
2023-01-23T07:39:04.046Z,34.23
2023-01-23T07:44:11.407Z,38.80
2023-01-23T07:49:17.079Z,43.30
2023-01-23T07:54:24.774Z,41.00
2023-01-23T07:59:30.791Z,34.63
2023-01-23T08:04:37.383Z,39.67
2023-01-23T08:09:45.377Z,39.53
2023-01-23T08:14:50.989Z,40.00
2023-01-23T08:19:55.981Z,40.47
2023-01-23T08:25:03.474Z,39.10
2023-01-23T08:30:10.561Z,41.40
2023-01-23T08:35:15.788Z,37.70
2023-01-23T08:40:23.632Z,37.00
2023-01-23T08:45:29.031Z,33.80
2023-01-23T08:50:34.559Z,37.77
2023-01-23T08:55:45.225Z,37.97
2023-01-23T09:00:51.351Z,39.67
2023-01-23T09:05:56.347Z,38.30
2023-01-23T09:11:07.833Z,36.57
2023-01-23T09:16:19.899Z,39.97
2023-01-23T09:21:25.056Z,41.37
2023-01-23T09:26:32.769Z,40.30
2023-01-23T09:31:38.276Z,46.77
2023-01-23T09:36:43.803Z,45.00
2023-01-23T09:41:52.301Z,44.10
2023-01-23T09:47:02.797Z,41.13
2023-01-23T09:52:15.901Z,43.73
2023-01-23T09:57:28.757Z,38.97
2023-01-23T10:02:34.167Z,37.80
2023-01-23T10:07:52.730Z,33.50
2023-01-23T10:13:09.425Z,33.10
2023-01-23T10:18:22.451Z,37.60
2023-01-23T10:23:47.192Z,33.63
2023-01-23T10:29:15.043Z,31.63
2023-01-23T10:34:43.772Z,37.57
2023-01-23T10:40:06.828Z,38.80
2023-01-23T10:45:36.352Z,35.63
2023-01-23T10:50:56.312Z,47.27
2023-01-23T10:56:04.760Z,35.93
2023-01-23T11:01:50.026Z,54.33
2023-01-23T11:07:14.809Z,38.23
2023-01-23T11:12:27.489Z,42.80
2023-01-23T11:17:38.472Z,33.77
2023-01-23T11:22:44.721Z,46.50
2023-01-23T11:28:01.183Z,41.87
2023-01-23T11:33:17.755Z,41.70
2023-01-23T11:38:31.331Z,45.20
2023-01-23T11:43:36.656Z,39.60
2023-01-23T11:49:02.447Z,45.53
2023-01-23T11:54:28.869Z,42.80
2023-01-23T11:59:58.445Z,41.83
2023-01-23T12:05:24.943Z,37.37
2023-01-23T12:10:34.884Z,37.30
2023-01-23T12:15:53.788Z,39.87
2023-01-23T12:21:08.913Z,42.10
2023-01-23T12:26:19.226Z,52.93
2023-01-23T12:31:41.526Z,48.63
2023-01-23T12:37:29.135Z,47.73
2023-01-23T12:42:44.198Z,48.07
2023-01-23T12:48:02.098Z,54.90
2023-01-23T12:53:36.736Z,60.77
2023-01-23T12:59:07.138Z,56.40
2023-01-23T13:04:48.971Z,58.87
2023-01-23T13:10:54.520Z,56.87
2023-01-23T13:16:26.113Z,122.53
2023-01-23T13:22:27.279Z,55.23
2023-01-23T13:28:09.317Z,50.50
2023-01-23T13:34:14.616Z,59.77
2023-01-23T13:39:31.546Z,67.67
2023-01-23T13:44:43.217Z,65.70
2023-01-23T14:23:43.112Z,67.53
2023-01-23T14:29:00.544Z,63.57
2023-01-23T14:34:17.662Z,63.07
2023-01-23T14:39:31.624Z,161.80
2023-01-23T14:44:46.918Z,74.93
2023-01-23T14:49:52.348Z,73.23
2023-01-23T14:55:07.359Z,70.63
2023-01-23T15:00:20.996Z,74.70
2023-01-23T15:05:35.044Z,75.73
2023-01-23T15:10:54.721Z,82.83
2023-01-23T15:16:05.499Z,64.60
2023-01-23T15:21:11.808Z,76.30
2023-01-23T15:26:36.459Z,70.57
2023-01-23T15:31:47.229Z,75.73
2023-01-23T15:36:56.362Z,73.87
2023-01-23T15:42:05.938Z,72.80
2023-01-23T15:47:11.523Z,72.53
2023-01-23T15:52:24.638Z,76.83
2023-01-23T15:57:34.934Z,77.37
2023-01-23T16:02:54.370Z,100.47
2023-01-23T16:08:05.037Z,72.80
2023-01-23T16:13:16.437Z,56.10
2023-01-23T16:18:25.260Z,62.23
2023-01-23T16:23:42.529Z,64.60
2023-01-23T16:29:02.004Z,58.00
2023-01-23T16:34:22.063Z,58.60
2023-01-23T16:39:29.458Z,66.93
2023-01-23T16:44:36.983Z,62.77
2023-01-23T16:49:52.058Z,55.57
2023-01-23T16:54:58.368Z,54.43
2023-01-23T17:00:16.556Z,57.63
2023-01-23T17:05:23.317Z,54.97
2023-01-23T17:10:45.522Z,62.30
2023-01-23T17:15:56.428Z,55.67
2023-01-23T17:21:05.906Z,58.57
2023-01-23T17:26:16.896Z,59.13
2023-01-23T17:31:29.456Z,53.10
2023-01-23T17:36:37.501Z,54.77
2023-01-23T17:41:42.605Z,53.97
2023-01-23T17:46:57.238Z,51.60
2023-01-23T17:52:03.788Z,57.93
2023-01-23T17:57:11.427Z,56.23
2023-01-23T18:02:30.475Z,56.50
2023-01-23T18:07:48.537Z,49.00
2023-01-23T18:13:08.856Z,55.20
2023-01-23T18:18:33.233Z,50.90
2023-01-23T18:23:41.380Z,70.93
2023-01-23T18:28:54.787Z,50.83
2023-01-23T18:34:17.319Z,54.17
2023-01-23T18:39:36.718Z,53.40
2023-01-23T18:44:45.566Z,55.40
2023-01-23T18:49:56.985Z,56.57
2023-01-23T18:55:11.235Z,51.20
2023-01-23T19:00:24.794Z,51.40
2023-01-23T19:05:39.122Z,47.63
2023-01-23T19:10:48.757Z,56.07
2023-01-23T19:16:02.936Z,54.93
2023-01-23T19:21:17.355Z,53.13
2023-01-23T19:26:24.520Z,57.67
2023-01-23T19:31:32.851Z,58.37
2023-01-23T19:36:43.444Z,69.93
2023-01-23T19:41:52.145Z,63.17
2023-01-23T19:46:58.781Z,70.00
2023-01-23T19:52:07.490Z,66.57
2023-01-23T19:57:14.683Z,59.70
2023-01-23T20:02:26.321Z,61.40
2023-01-23T20:07:36.563Z,69.13
2023-01-23T20:12:52.223Z,63.47
2023-01-23T20:17:57.850Z,62.87
2023-01-23T20:23:08.340Z,65.23
2023-01-23T20:28:14.084Z,67.27
2023-01-23T20:33:19.170Z,63.70
2023-01-23T20:38:27.182Z,72.27
2023-01-23T20:43:32.302Z,70.03
2023-01-23T20:48:40.944Z,66.97
2023-01-23T20:53:53.483Z,65.13
2023-01-23T20:59:12.039Z,65.80
2023-01-23T21:04:20.764Z,70.33
2023-01-23T21:09:28.663Z,68.80
2023-01-23T21:14:35.450Z,65.17
2023-01-23T21:19:42.049Z,82.73
2023-01-23T21:24:49.619Z,77.37
2023-01-23T21:29:54.527Z,118.27
2023-01-23T21:34:59.505Z,68.67
2023-01-23T21:40:12.467Z,69.20
2023-01-23T21:45:17.437Z,67.90
2023-01-23T21:50:22.344Z,69.83
2023-01-23T21:55:30.982Z,66.83
2023-01-23T22:00:57.630Z,76.07
2023-01-23T22:06:04.610Z,67.37
2023-01-23T22:11:15.144Z,71.93
2023-01-23T22:16:28.544Z,75.50
2023-01-23T22:21:46.916Z,77.90
2023-01-23T22:26:54.724Z,82.63
2023-01-23T22:32:02.538Z,82.43
2023-01-23T22:37:07.758Z,88.90
2023-01-23T22:42:15.365Z,75.77
2023-01-23T22:47:20.419Z,80.90
2023-01-23T22:52:27.438Z,141.40
2023-01-23T22:57:35.352Z,80.27
2023-01-23T23:02:40.274Z,83.37
2023-01-23T23:07:45.655Z,76.47
2023-01-23T23:12:54.644Z,79.00
2023-01-23T23:17:59.832Z,70.93
2023-01-23T23:23:07.783Z,74.37
2023-01-23T23:28:15.299Z,63.20
2023-01-23T23:33:23.271Z,58.93
2023-01-23T23:38:30.187Z,67.60
2023-01-23T23:43:38.632Z,57.73
2023-01-23T23:48:44.752Z,64.67
2023-01-23T23:53:51.075Z,62.40
2023-01-23T23:58:59.912Z,63.87
